Karl Mets

Recruteur en chef - Sillamae Kalev
20 Févr 2028
Dimanche
Processus

Personnalité

Adaptabilité (1) Ambition (3) Controverse (13) Loyauté (14) Pression (7) Professionnalisme (1) Sportivité (15) Tempérament (1)

Profil

Style d'entraînement Démocratique
Diplôme Continental Pro
Détermination 5
Gestion des joueurs 8
Motivation 6
Discipline 3
Satisfaction professionnelle
100%
Fatigue
0%
Rôle Recruteur en chef
Salaire 28.3K p/s
Contrat 14.03.2030

Performance

Comportement Bon
Efficacité de l'entraînement
20%
Développement des joueurs
40%
Prévention des blessures
5%
Mise en place tactique
5%

Événements récents

A participé à une réunion de recrutement maintenant
A recommandé une cible de transfert maintenant
A participé à une réunion de recrutement 7j
A recommandé une cible de transfert 7j
A recommandé une cible de transfert 7j
A recommandé une cible de transfert 7j
A recommandé une cible de transfert 14j
A recommandé une cible de transfert 14j

Suivi en cours

179
Joueur Club Statut Capacité Confiance Observé Dernière observation Dernier vote
Kauã Miranda Narva Trans Négociation 65 / 72 65% 1 02.01.2028 Approuver
Alexandr Saplinov Volga Actif 107 / 94 40% 5 01.01.2028 -
Santiago Sala Güemes Actif 109 / 113 40% 1 01.01.2028 -
Sebastián Cocimano Nueva Chicago Actif 105 / 129 40% 1 01.01.2028 -
Juan Esteban Ávalo Aguilas Doradas Actif 122 / 129 40% 2 30.12.2027 -
Kirill Moiseev Rostov Actif 88 / 93 40% 1 30.12.2027 -
Juan Yangali San Telmo Actif 110 / 125 40% 1 30.12.2027 -
Duvan Rangel La Equidad Actif 143 / 139 40% 1 28.12.2027 -
Juan Sebastián Herrera Deportivo La Guaira Actif 120 / 114 40% 1 28.12.2027 -
Armando Preciado Deportes Quindio Actif 102 / 80 40% 1 28.12.2027 -
Estanislao Jara Madryn Actif 117 / 93 40% 1 27.12.2027 -
Brian Farioli Estudiantes Actif 116 / 131 40% 1 27.12.2027 -
Iñaki Larthirigoyen San Telmo Actif 127 / 132 40% 1 27.12.2027 -
Maximiliano Ribero Central Norte Actif 117 / 96 40% 2 25.12.2027 -
Abel Bustos Racing Actif 103 / 131 40% 1 25.12.2027 -
Rodrigo González Mitre Actif 125 / 101 40% 1 25.12.2027 -
Danil Karpov KAMAZ Actif 100 / 96 40% 4 24.12.2027 -
Julián Cosi Madryn Actif 112 / 119 40% 1 24.12.2027 -
Matías Benítez San Miguel Actif 102 / 100 40% 1 21.12.2027 -
Augusto Berrondo Tristán Suárez Actif 98 / 104 40% 1 21.12.2027 -
Idris Saidu Barau Actif 92 / 80 40% 1 18.12.2027 -
Axel Batista Quilmes Actif 109 / 122 40% 1 18.12.2027 -
Ariel Castellano Alvarado Actif 105 / 85 40% 1 18.12.2027 -
Ramazan Gadjimuradov Chelyabinsk Actif 111 / 112 40% 3 17.12.2027 -
Enzo Trinidad Colegiales Actif 106 / 119 40% 1 17.12.2027 -
Danila Kozlov Ufa Actif 121 / 118 40% 1 17.12.2027 -
Lautaro Disanto Defensores Unidos Actif 107 / 107 40% 1 15.12.2027 -
Jeizon Ramírez Chacón Metropolitanos Actif 93 / 86 40% 1 15.12.2027 -
Federico Bisanz Atlanta Actif 121 / 127 40% 1 15.12.2027 -
Agustín Benítez Defensores Actif 123 / 95 40% 1 14.12.2027 -
Vladislav Melko Torpedo-BelAZ Actif 102 / 93 40% 1 14.12.2027 -
Enzo Acosta Estudiantes Actif 103 / 128 40% 1 14.12.2027 -
Timofey Simanenka Gomel Actif 94 / 103 40% 1 12.12.2027 -
Kirill Leonovich Gomel Actif 95 / 101 40% 1 12.12.2027 -
Nikolay Giorgobiani Fakel Actif 116 / 111 40% 1 12.12.2027 -
Thomas Ortega Quilmes Actif 122 / 116 40% 1 11.12.2027 -
Oscar Garrido Mitre Actif 128 / 124 40% 1 11.12.2027 -
Enzo Martínez Almagro Actif 112 / 103 40% 1 09.12.2027 -
Tiago Banega Gimnasia y Tiro Actif 100 / 120 40% 1 09.12.2027 -
Braian Aranda Agropecuario Argentino Actif 104 / 113 40% 1 09.12.2027 -
Ifeanyi Assurance Rangers International Actif 88 / 81 40% 1 07.12.2027 -
Brian Calderara Chacarita Juniors Actif 120 / 110 40% 1 07.12.2027 -
Nikita Saltykov Rotor Actif 112 / 109 40% 1 07.12.2027 -
Konstantin Kuchinskiy Minsk Actif 96 / 100 40% 1 06.12.2027 -
Abubakar Taheer Shooting Stars Actif 87 / 75 40% 1 06.12.2027 -
Kenan Dervišagić Floriana Actif 101 / 100 40% 2 17.08.2027 -
Niccolò Corti Pergolettese Actif 92 / 90 40% 1 17.08.2027 -
Valeri Shantenkov Narva Trans Actif 60 / 79 65% 1 21.06.2027 Approuver
Aleksandr Jegorov Narva Trans Actif 67 / 52 65% 1 02.06.2027 Approuver
Kirill Malyarov Shinnik Actif 96 / 91 40% 4 31.05.2027 -
Lamine Diakité Djoliba Actif 98 / 99 40% 2 31.05.2027 -
Sergey Gaiduk Salyut Actif 71 / 90 40% 1 31.05.2027 -
Artem Stepanovich Sevastopol Actif 91 / 83 40% 5 30.05.2027 -
Yeangel Montero Naxxar Lions Actif 98 / 118 40% 3 30.05.2027 -
Dmitry Kamenschikov Arsenal Tula Actif 99 / 100 40% 1 30.05.2027 -
Ansor Khabibov Ryazan Actif 89 / 90 40% 2 29.05.2027 -
Vasily Cherov Ufa Actif 104 / 94 40% 2 29.05.2027 -
Migran Ageyan Ufa Actif 88 / 96 40% 5 29.05.2027 -
Daniil Konoplev Dinamo Bryansk Actif 79 / 77 40% 4 28.05.2027 -
Malick Traoré Onze Createurs Actif 102 / 85 40% 2 28.05.2027 -
Arseny Vainer Nosta Actif 83 / 66 40% 1 28.05.2027 -
Danila Yezhkov Dinamo Vologda Actif 90 / 85 40% 4 27.05.2027 -
Alexandr Khokhlachev Rotor Actif 96 / 99 40% 1 27.05.2027 -
Anton Antonov Chernomorets Actif 92 / 94 40% 2 26.05.2027 -
Artem Ntumba Rubin Yalta Actif 78 / 67 40% 2 25.05.2027 -
Vladislav Tyurin Saturn Actif 85 / 71 40% 1 25.05.2027 -
Yegor Ponomarev Tver Actif 70 / 78 40% 1 25.05.2027 -
Oleksandr Masalov Dinamo St Petersburg Actif 83 / 93 40% 4 24.05.2027 -
Arshak Koryan SKA Khabarovsk Actif 98 / 96 40% 5 24.05.2027 -
Ekain Orobengoa Real Sociedad Actif 91 / 111 40% 3 24.05.2027 -
Leon Sabua Fakel Actif 103 / 88 40% 1 24.05.2027 -
Andrey Nikitin Neftekhimik Actif 97 / 88 40% 2 23.05.2027 -
Alexandr Shlenkin Dinamo Bryansk Actif 83 / 75 40% 4 22.05.2027 -
Đorđe Pantelić Spartak Kostroma Actif 112 / 112 40% 3 22.05.2027 -
Rashid Magomedov Neftekhimik Actif 95 / 96 40% 1 22.05.2027 -
David Kokoev Yenisey Actif 110 / 113 40% 3 20.05.2027 -
Tigran Avanesyan Arsenal Tula Actif 107 / 111 40% 2 20.05.2027 -
Darko Todorović Fakel Actif 123 / 112 40% 1 20.05.2027 -
Omar Popov Dinamo St Petersburg Actif 77 / 73 40% 8 19.05.2027 -
David Davidyan Rotor Actif 106 / 110 40% 4 19.05.2027 -
Tamaz Topuria Mashuk Actif 91 / 82 40% 2 19.05.2027 -
Jorge Meireles AVS Actif 116 / 119 40% 1 19.05.2027 -
Ousmane Coulibaly Stade Malien Actif 105 / 105 40% 1 19.05.2027 -
Sebastián Arce Rodina Actif 119 / 101 40% 1 19.05.2027 -
Surkhaikhan Abdullaev KAMAZ Actif 91 / 93 40% 2 18.05.2027 -
Alexandr Galimov Luki-Energiya Actif 70 / 76 40% 1 18.05.2027 -
Ruslan Cherviakov Spartak Kostroma Actif 100 / 105 40% 5 17.05.2027 -
Igor Gorbunov Arsenal Tula Actif 90 / 94 40% 3 17.05.2027 -
Said Aliev Rotor Actif 96 / 90 40% 4 17.05.2027 -
Roman Kopylov Tver Actif 72 / 77 40% 1 17.05.2027 -
Makan Camara AS Bakaridjan Actif 111 / 102 40% 2 16.05.2027 -
Banou Cissé Real Bamako Actif 109 / 84 40% 3 16.05.2027 -
Nikita Simdyankin KDV Tomsk Actif 88 / 85 40% 1 16.05.2027 -
Alan Khabalov Ufa Actif 96 / 102 40% 1 15.05.2027 -
Danil Lipovoy Ufa Actif 104 / 95 40% 1 15.05.2027 -
Danil Polyakh Rubin Yalta Actif 74 / 71 40% 2 14.05.2027 -
Ivan Gulko KAMAZ Actif 92 / 78 40% 1 14.05.2027 -
David Karaev KAMAZ Actif 97 / 104 40% 3 13.05.2027 -
Bojan Dimoski Akron Actif 103 / 109 40% 1 13.05.2027 -
Ilja Zhigulev Chernomorets Actif 104 / 110 40% 1 13.05.2027 -
Artem Medvedev Dinamo Bryansk Actif 94 / 97 40% 3 12.05.2027 -
Ibragim Umarov Pobeda Actif 89 / 90 40% 2 12.05.2027 -
Ilja Azyavin Arsenal Tula Actif 90 / 81 40% 2 12.05.2027 -
Magomed Abakarov Rotor Actif 86 / 86 40% 1 12.05.2027 -
Pedro Cejas Zabbar St. Patrick Actif 94 / 71 40% 3 11.05.2027 -
Andrey Bokovoy Spartak Tambov Actif 80 / 78 40% 3 09.05.2027 -
Alexandr Lomakin Yenisey Actif 96 / 92 40% 1 09.05.2027 -
Kirill Bogdanets Volna Actif 83 / 82 40% 1 09.05.2027 -
Matías Gómez Granada Actif 102 / 139 40% 1 06.05.2027 -
Daniil Kondakov Zenit Actif 83 / 79 40% 1 06.05.2027 -
Magomed Nasibov Pobeda Actif 78 / 79 40% 5 04.05.2027 -
Vitaly Dunay (Karpenko) Chaika Actif 94 / 101 40% 2 04.05.2027 -
Alexey Berdnikov Chelyabinsk Actif 98 / 98 40% 1 04.05.2027 -
Thomas Waddingham Portsmouth Actif 98 / 96 40% 1 04.05.2027 -
Azər Əliyev Yenisey Actif 95 / 94 40% 1 02.05.2027 -
Garrik Levin Chelyabinsk Actif 96 / 105 40% 3 01.05.2027 -
Nikita Rozhkov Dinamo Stavropol Actif 78 / 86 40% 5 01.05.2027 -
Stepan Melnikov Fakel Actif 84 / 101 40% 1 29.04.2027 -
Ilja Gruznov Khimik Actif 93 / 76 40% 1 28.04.2027 -
Dmitry Kuptsov Spartak Tambov Actif 85 / 73 40% 1 28.04.2027 -
Daniil Kondrakov KDV Tomsk Actif 87 / 83 40% 2 27.04.2027 -
Kamran Aliev SKA Khabarovsk Actif 103 / 99 40% 5 25.04.2027 -
Nikita Yershov Kosmos Actif 86 / 74 40% 2 25.04.2027 -
Mikhail Gainov Dinamo Stavropol Actif 90 / 73 40% 2 24.04.2027 -
Jon Eceizabarrena Real Sociedad Actif 102 / 98 40% 1 24.04.2027 -
Malick Touré Onze Createurs Actif 84 / 81 40% 1 24.04.2027 -
Albert Rusnak FK Senica Actif 85 / 83 40% 1 23.04.2027 -
Nikolay Boyarkin Salyut Actif 83 / 91 40% 3 22.04.2027 -
Aaron Drinan Swindon Town Actif 115 / 116 40% 2 22.04.2027 -
Dramane Traoré AS Korofina Actif 86 / 98 40% 1 22.04.2027 -
Danila Matvevnin Kosmos Actif 72 / 64 40% 1 21.04.2027 -
Ilja Vakhania Krasnodar Actif 115 / 112 40% 2 20.04.2027 -
Vladislav Yakovlev Volga Actif 93 / 94 40% 1 18.04.2027 -
Nikita Trapitsyn Zenit Actif 73 / 69 40% 2 17.04.2027 -
Timur Zhamaletdinov Arsenal Tula Actif 85 / 86 40% 1 15.04.2027 -
Jacobo Alcalde SKA Khabarovsk Actif 85 / 99 40% 4 14.04.2027 -
Fortune Bassey Djoliba Actif 92 / 95 40% 3 13.04.2027 -
Ivan Matyushenko Alania Actif 81 / 91 40% 1 13.04.2027 -
Víctor Guzmán Sporting CP Actif 104 / 106 40% 1 13.04.2027 -
Anton Betyuzhnov Dinamo Vologda Actif 72 / 73 40% 3 10.04.2027 -
Nikita Demchenko Spartak Kostroma Actif 100 / 97 40% 1 10.04.2027 -
Artur Murza Volga Actif 93 / 100 40% 1 10.04.2027 -
Artem Golubev Shinnik Actif 92 / 93 40% 2 09.04.2027 -
Sergey Gribov Dinamo Bryansk Actif 83 / 93 40% 1 09.04.2027 -
Andrey Okladnikov Yenisey Actif 90 / 100 40% 1 09.04.2027 -
Facundo González Yenisey Actif 93 / 103 40% 1 09.04.2027 -
Andrea Chukanov Yenisey Actif 104 / 107 40% 3 07.04.2027 -
Giorgi Kantaria Neftekhimik Actif 103 / 106 40% 2 06.04.2027 -
Robert Murić Floriana Actif 109 / 114 40% 1 06.04.2027 -
Zakhar Tarasenko Veles Actif 85 / 97 40% 1 06.04.2027 -
Calum Agius Crewe Alexandra Actif 89 / 105 40% 1 06.04.2027 -
Eduard Bagrintsev Znamya Truda Actif 71 / 75 40% 1 05.04.2027 -
Ruslan Baitukov Chelyabinsk Actif 95 / 94 40% 2 04.04.2027 -
Ilnur Badrtdinov Metallurg Actif 73 / 70 40% 1 03.04.2027 -
Sultan Djamilov Neftekhimik Actif 95 / 86 40% 1 02.04.2027 -
Evgeny Voronin Volga Actif 96 / 84 40% 1 31.03.2027 -
Daniil Grigorjev Metallurg Actif 81 / 90 40% 1 28.03.2027 -
Yegor Gulyaev Chaika Actif 84 / 76 40% 1 28.03.2027 -
Alexandr Dolgov Amkar Actif 103 / 84 40% 2 27.03.2027 -
Soslan Takulov Neftekhimik Actif 91 / 103 40% 1 26.03.2027 -
Damir Céter Hamrun Spartans Actif 109 / 82 40% 1 25.03.2027 -
Krasian Kolev Chernomorets Actif 96 / 106 40% 1 21.03.2027 -
Benard Mundi Stade Malien Actif 91 / 97 40% 1 17.03.2027 -
Ruslan Chobanov Chaika Actif 86 / 88 40% 1 15.03.2027 -
Bruno Gomes Valletta Actif 101 / 104 40% 1 14.03.2027 -
Josh Dacres-Cogley Stockport County Actif 112 / 104 40% 1 06.03.2027 -
Dmitry Sasin Sokol Actif 86 / 90 40% 2 05.03.2027 -
Kirill Bozhenov SKA Khabarovsk Actif 107 / 109 40% 1 02.03.2027 -
Erik Sappinen Tulevik Actif 55 / 46 58% 1 25.01.2027 -
Sander Alamaa Flora Actif 54 / 66 58% 1 07.01.2027 Approuver
Andrey Yakovlev Dinamo Vologda Actif 97 / 81 40% 1 22.12.2026 -
Emil Gallyamov Amkar Actif 68 / 70 40% 2 16.12.2026 -
Artur Gilyazetdinov Yenisey Actif 92 / 103 40% 1 11.12.2026 -
Semyon Radostev Astrakhan Actif 78 / 77 40% 1 10.12.2026 -
Kevin Pina Krasnodar Actif 118 / 129 40% 1 18.11.2026 -
Daniel Luts Paide Actif 67 / 71 58% 1 24.08.2026 Approuver
Mark Hendrik Kukk Flora Actif 59 / 65 58% 1 10.08.2026 -
Nemanja Mihajlović Zalgiris Actif 97 / 108 40% 1 02.08.2026 -
Mamadou Camara Torpedo Moscow Actif 83 / 99 40% 1 02.08.2026 -